sensor_id;sensor_type;location;lat;lon;timestamp;pressure;altitude;pressure_sealevel;temperature;humidity
71976;BME280;60680;52.182;5.398;2022-12-07T00:01:36;101851.22;;;3.87;99.60
71976;BME280;60680;52.182;5.398;2022-12-07T00:04:05;101868.38;;;3.86;99.39
71976;BME280;60680;52.182;5.398;2022-12-07T00:06:33;101871.81;;;3.84;99.29
71976;BME280;60680;52.182;5.398;2022-12-07T00:09:00;101870.13;;;3.81;99.54
71976;BME280;60680;52.182;5.398;2022-12-07T00:11:27;101870.13;;;3.81;99.68
71976;BME280;60680;52.182;5.398;2022-12-07T00:13:56;101869.28;;;3.78;99.37
71976;BME280;60680;52.182;5.398;2022-12-07T00:16:25;101865.88;;;3.74;99.41
71976;BME280;60680;52.182;5.398;2022-12-07T00:18:52;101859.03;;;3.70;99.24
71976;BME280;60680;52.182;5.398;2022-12-07T00:21:21;101859.03;;;3.67;99.12
71976;BME280;60680;52.182;5.398;2022-12-07T00:23:49;101853.94;;;3.64;99.62
71976;BME280;60680;52.182;5.398;2022-12-07T00:26:19;101847.94;;;3.62;99.69
71976;BME280;60680;52.182;5.398;2022-12-07T00:28:50;101841.91;;;3.64;99.82
71976;BME280;60680;52.182;5.398;2022-12-07T00:31:20;101846.19;;;3.70;100.00
71976;BME280;60680;52.182;5.398;2022-12-07T00:33:47;101843.59;;;3.70;99.71
71976;BME280;60680;52.182;5.398;2022-12-07T00:36:16;101848.75;;;3.68;99.76
71976;BME280;60680;52.182;5.398;2022-12-07T00:38:51;101841.03;;;3.68;99.35
71976;BME280;60680;52.182;5.398;2022-12-07T00:41:20;101839.31;;;3.69;100.00
71976;BME280;60680;52.182;5.398;2022-12-07T00:43:48;101831.59;;;3.66;99.98
71976;BME280;60680;52.182;5.398;2022-12-07T00:46:16;101839.38;;;3.61;100.00
71976;BME280;60680;52.182;5.398;2022-12-07T00:48:43;101835.94;;;3.58;99.94
71976;BME280;60680;52.182;5.398;2022-12-07T00:51:11;101841.09;;;3.55;100.00
71976;BME280;60680;52.182;5.398;2022-12-07T00:53:38;101832.50;;;3.53;100.00
71976;BME280;60680;52.182;5.398;2022-12-07T00:56:09;101836.84;;;3.49;100.00
71976;BME280;60680;52.182;5.398;2022-12-07T00:58:37;101836.84;;;3.46;100.00
71976;BME280;60680;52.182;5.398;2022-12-07T01:01:05;101829.16;;;3.44;99.82
71976;BME280;60680;52.182;5.398;2022-12-07T01:03:32;101830.00;;;3.43;100.00
71976;BME280;60680;52.182;5.398;2022-12-07T01:05:59;101830.84;;;3.44;100.00
71976;BME280;60680;52.182;5.398;2022-12-07T01:08:27;101825.72;;;3.47;100.00
71976;BME280;60680;52.182;5.398;2022-12-07T01:11:06;101822.25;;;3.50;100.00
71976;BME280;60680;52.182;5.398;2022-12-07T01:13:34;101828.28;;;3.49;99.45
71976;BME280;60680;52.182;5.398;2022-12-07T01:16:02;101826.56;;;3.49;99.78
71976;BME280;60680;52.182;5.398;2022-12-07T01:18:30;101830.84;;;3.49;99.49
71976;BME280;60680;52.182;5.398;2022-12-07T01:20:59;101823.13;;;3.45;99.60
71976;BME280;60680;52.182;5.398;2022-12-07T01:23:25;101836.03;;;3.41;99.39
71976;BME280;60680;52.182;5.398;2022-12-07T01:25:59;101830.88;;;3.38;99.68
71976;BME280;60680;52.182;5.398;2022-12-07T01:28:26;101829.22;;;3.32;99.31
71976;BME280;60680;52.182;5.398;2022-12-07T01:30:57;101837.78;;;3.31;99.32
71976;BME280;60680;52.182;5.398;2022-12-07T01:33:23;101832.66;;;3.28;99.37
71976;BME280;60680;52.182;5.398;2022-12-07T01:35:50;101836.94;;;3.24;99.33
71976;BME280;60680;52.182;5.398;2022-12-07T01:38:16;101837.81;;;3.22;99.30
71976;BME280;60680;52.182;5.398;2022-12-07T01:40:43;101841.22;;;3.21;99.64
71976;BME280;60680;52.182;5.398;2022-12-07T01:43:18;101838.69;;;3.19;99.33
71976;BME280;60680;52.182;5.398;2022-12-07T01:45:45;101845.56;;;3.16;99.46
71976;BME280;60680;52.182;5.398;2022-12-07T01:48:15;101842.97;;;3.14;99.40
71976;BME280;60680;52.182;5.398;2022-12-07T01:50:45;101847.28;;;3.12;99.44
71976;BME280;60680;52.182;5.398;2022-12-07T01:53:13;101842.16;;;3.09;99.03
71976;BME280;60680;52.182;5.398;2022-12-07T01:55:42;101841.28;;;3.07;99.34
71976;BME280;60680;52.182;5.398;2022-12-07T01:58:11;101845.59;;;3.06;99.46
71976;BME280;60680;52.182;5.398;2022-12-07T02:00:39;101843.91;;;3.04;98.94
71976;BME280;60680;52.182;5.398;2022-12-07T02:03:17;101845.59;;;3.06;99.43
71976;BME280;60680;52.182;5.398;2022-12-07T02:05:46;101848.13;;;3.10;99.15
71976;BME280;60680;52.182;5.398;2022-12-07T02:08:13;101836.13;;;3.10;98.89
71976;BME280;60680;52.182;5.398;2022-12-07T02:10:40;101839.56;;;3.09;98.90
71976;BME280;60680;52.182;5.398;2022-12-07T02:21:11;101827.56;;;3.13;98.74
71976;BME280;60680;52.182;5.398;2022-12-07T02:23:42;101831.00;;;3.13;98.78
71976;BME280;60680;52.182;5.398;2022-12-07T02:31:20;101835.25;;;3.17;98.53
71976;BME280;60680;52.182;5.398;2022-12-07T02:33:56;101819.00;;;3.17;98.11
71976;BME280;60680;52.182;5.398;2022-12-07T02:36:29;101817.25;;;3.14;98.58
71976;BME280;60680;52.182;5.398;2022-12-07T02:39:11;101815.56;;;3.13;98.19
71976;BME280;60680;52.182;5.398;2022-12-07T02:41:47;101815.56;;;3.12;98.24
71976;BME280;60680;52.182;5.398;2022-12-07T02:44:18;101815.56;;;3.12;99.08
71976;BME280;60680;52.182;5.398;2022-12-07T02:46:54;101815.56;;;3.15;98.61
71976;BME280;60680;52.182;5.398;2022-12-07T02:49:23;101809.56;;;3.17;98.91
71976;BME280;60680;52.182;5.398;2022-12-07T02:51:52;101810.38;;;3.21;98.46
71976;BME280;60680;52.182;5.398;2022-12-07T02:54:20;101811.25;;;3.20;98.36
71976;BME280;60680;52.182;5.398;2022-12-07T02:56:54;101817.28;;;3.19;99.16
71976;BME280;60680;52.182;5.398;2022-12-07T02:59:34;101815.53;;;3.18;98.62
71976;BME280;60680;52.182;5.398;2022-12-07T03:02:28;101820.66;;;3.21;98.84
71976;BME280;60680;52.182;5.398;2022-12-07T03:08:15;101815.53;;;3.25;98.82
71976;BME280;60680;52.182;5.398;2022-12-07T03:10:58;101811.22;;;3.26;99.22
71976;BME280;60680;52.182;5.398;2022-12-07T03:13:47;101814.66;;;3.28;98.89
71976;BME280;60680;52.182;5.398;2022-12-07T03:19:08;101810.38;;;3.24;99.12
71976;BME280;60680;52.182;5.398;2022-12-07T03:21:39;101817.25;;;3.20;99.29
71976;BME280;60680;52.182;5.398;2022-12-07T03:24:10;101812.13;;;3.16;99.37
71976;BME280;60680;52.182;5.398;2022-12-07T03:26:42;101814.69;;;3.14;99.79
71976;BME280;60680;52.182;5.398;2022-12-07T03:29:24;101805.28;;;3.15;99.26
71976;BME280;60680;52.182;5.398;2022-12-07T03:32:00;101810.44;;;3.15;99.44
71976;BME280;60680;52.182;5.398;2022-12-07T03:34:34;101813.84;;;3.12;99.33
71976;BME280;60680;52.182;5.398;2022-12-07T03:37:08;101811.31;;;3.06;99.20
71976;BME280;60680;52.182;5.398;2022-12-07T03:39:46;101808.75;;;3.03;99.79
71976;BME280;60680;52.182;5.398;2022-12-07T03:42:16;101809.63;;;3.00;99.62
71976;BME280;60680;52.182;5.398;2022-12-07T03:44:43;101809.63;;;3.00;99.65
71976;BME280;60680;52.182;5.398;2022-12-07T03:47:33;101795.00;;;3.05;99.43
71976;BME280;60680;52.182;5.398;2022-12-07T03:52:58;101800.13;;;3.12;99.62
71976;BME280;60680;52.182;5.398;2022-12-07T03:55:29;101802.72;;;3.09;99.51
71976;BME280;60680;52.182;5.398;2022-12-07T03:58:05;101801.03;;;3.03;99.86
71976;BME280;60680;52.182;5.398;2022-12-07T04:00:33;101807.03;;;3.02;99.70
71976;BME280;60680;52.182;5.398;2022-12-07T04:03:00;101794.16;;;3.03;99.76
71976;BME280;60680;52.182;5.398;2022-12-07T04:05:27;101786.44;;;3.06;99.81
71976;BME280;60680;52.182;5.398;2022-12-07T04:07:54;101793.28;;;3.11;99.42
71976;BME280;60680;52.182;5.398;2022-12-07T04:10:21;101793.25;;;3.14;99.98
71976;BME280;60680;52.182;5.398;2022-12-07T04:12:47;101789.84;;;3.12;99.21
71976;BME280;60680;52.182;5.398;2022-12-07T04:15:14;101787.28;;;3.12;99.74
71976;BME280;60680;52.182;5.398;2022-12-07T04:17:41;101787.28;;;3.10;99.39
71976;BME280;60680;52.182;5.398;2022-12-07T04:20:08;101783.84;;;3.08;99.94
71976;BME280;60680;52.182;5.398;2022-12-07T04:22:35;101784.72;;;3.05;99.92
71976;BME280;60680;52.182;5.398;2022-12-07T04:25:01;101783.03;;;3.01;99.34
71976;BME280;60680;52.182;5.398;2022-12-07T04:27:28;101786.47;;;2.97;99.70
71976;BME280;60680;52.182;5.398;2022-12-07T04:29:55;101783.94;;;2.96;99.47
71976;BME280;60680;52.182;5.398;2022-12-07T04:32:23;101788.22;;;2.91;99.61
71976;BME280;60680;52.182;5.398;2022-12-07T04:34:50;101794.22;;;2.90;99.81
71976;BME280;60680;52.182;5.398;2022-12-07T04:37:21;101786.50;;;2.93;99.83
71976;BME280;60680;52.182;5.398;2022-12-07T04:39:49;101782.19;;;2.95;99.68
71976;BME280;60680;52.182;5.398;2022-12-07T04:42:15;101791.63;;;2.99;99.87
71976;BME280;60680;52.182;5.398;2022-12-07T04:44:42;101786.44;;;3.03;100.00
71976;BME280;60680;52.182;5.398;2022-12-07T04:47:09;101789.03;;;3.05;99.72
71976;BME280;60680;52.182;5.398;2022-12-07T04:49:36;101788.19;;;3.06;99.92
71976;BME280;60680;52.182;5.398;2022-12-07T04:52:03;101778.75;;;3.06;99.70
71976;BME280;60680;52.182;5.398;2022-12-07T04:54:29;101783.03;;;3.04;99.87
71976;BME280;60680;52.182;5.398;2022-12-07T04:56:56;101783.91;;;3.00;99.90
71976;BME280;60680;52.182;5.398;2022-12-07T04:59:23;101774.50;;;2.96;100.00
71976;BME280;60680;52.182;5.398;2022-12-07T05:01:49;101771.06;;;2.93;99.92
71976;BME280;60680;52.182;5.398;2022-12-07T05:04:16;101773.66;;;2.90;99.53
71976;BME280;60680;52.182;5.398;2022-12-07T05:06:44;101766.81;;;2.85;99.44
71976;BME280;60680;52.182;5.398;2022-12-07T05:09:11;101761.66;;;2.82;100.00
71976;BME280;60680;52.182;5.398;2022-12-07T05:11:38;101765.97;;;2.80;99.75
71976;BME280;60680;52.182;5.398;2022-12-07T05:14:13;101765.97;;;2.77;99.89
71976;BME280;60680;52.182;5.398;2022-12-07T05:16:42;101765.97;;;2.76;99.42
71976;BME280;60680;52.182;5.398;2022-12-07T05:19:09;101770.25;;;2.74;99.80
71976;BME280;60680;52.182;5.398;2022-12-07T05:21:37;101769.41;;;2.73;99.89
71976;BME280;60680;52.182;5.398;2022-12-07T05:24:04;101769.41;;;2.72;99.30
71976;BME280;60680;52.182;5.398;2022-12-07T05:26:31;101772.00;;;2.72;99.89
71976;BME280;60680;52.182;5.398;2022-12-07T05:28:58;101766.88;;;2.70;99.61
71976;BME280;60680;52.182;5.398;2022-12-07T05:31:26;101772.00;;;2.72;99.56
71976;BME280;60680;52.182;5.398;2022-12-07T05:33:53;101766.88;;;2.69;99.27
71976;BME280;60680;52.182;5.398;2022-12-07T05:36:20;101769.44;;;2.67;99.85
71976;BME280;60680;52.182;5.398;2022-12-07T05:38:47;101770.28;;;2.68;99.87
71976;BME280;60680;52.182;5.398;2022-12-07T05:41:16;101769.44;;;2.69;100.00
71976;BME280;60680;52.182;5.398;2022-12-07T05:44:03;101769.44;;;2.69;99.55
71976;BME280;60680;52.182;5.398;2022-12-07T05:46:30;101777.13;;;2.72;99.69
71976;BME280;60680;52.182;5.398;2022-12-07T05:48:57;101772.00;;;2.72;99.77
71976;BME280;60680;52.182;5.398;2022-12-07T05:51:24;101777.13;;;2.72;99.48
71976;BME280;60680;52.182;5.398;2022-12-07T05:53:51;101776.28;;;2.73;99.78
71976;BME280;60680;52.182;5.398;2022-12-07T05:56:17;101772.84;;;2.74;99.59
71976;BME280;60680;52.182;5.398;2022-12-07T05:58:44;101774.56;;;2.75;99.16
71976;BME280;60680;52.182;5.398;2022-12-07T06:01:29;101778.84;;;2.74;99.22
71976;BME280;60680;52.182;5.398;2022-12-07T06:03:56;101773.72;;;2.73;99.18
71976;BME280;60680;52.182;5.398;2022-12-07T06:06:22;101772.88;;;2.72;99.65
71976;BME280;60680;52.182;5.398;2022-12-07T06:08:49;101774.56;;;2.72;99.78
71976;BME280;60680;52.182;5.398;2022-12-07T06:11:16;101772.88;;;2.72;99.46
71976;BME280;60680;52.182;5.398;2022-12-07T06:14:01;101774.56;;;2.73;99.21
71976;BME280;60680;52.182;5.398;2022-12-07T06:16:27;101775.41;;;2.74;99.00
71976;BME280;60680;52.182;5.398;2022-12-07T06:18:54;101776.25;;;2.76;98.96
71976;BME280;60680;52.182;5.398;2022-12-07T06:21:21;101771.13;;;2.76;99.40
71976;BME280;60680;52.182;5.398;2022-12-07T06:23:48;101779.69;;;2.75;99.32
71976;BME280;60680;52.182;5.398;2022-12-07T06:26:14;101770.28;;;2.72;99.01
71976;BME280;60680;52.182;5.398;2022-12-07T06:28:41;101766.84;;;2.72;99.57
71976;BME280;60680;52.182;5.398;2022-12-07T06:31:08;101778.84;;;2.74;99.68
71976;BME280;60680;52.182;5.398;2022-12-07T06:33:39;101772.84;;;2.77;99.51
71976;BME280;60680;52.182;5.398;2022-12-07T06:36:06;101778.84;;;2.79;99.35
71976;BME280;60680;52.182;5.398;2022-12-07T06:38:33;101780.53;;;2.81;99.54
71976;BME280;60680;52.182;5.398;2022-12-07T06:40:59;101776.25;;;2.82;99.02
71976;BME280;60680;52.182;5.398;2022-12-07T06:43:26;101774.53;;;2.78;99.13
71976;BME280;60680;52.182;5.398;2022-12-07T06:45:53;101773.72;;;2.74;99.57
71976;BME280;60680;52.182;5.398;2022-12-07T06:48:20;101772.00;;;2.70;98.75
71976;BME280;60680;52.182;5.398;2022-12-07T06:50:47;101772.00;;;2.65;99.15
71976;BME280;60680;52.182;5.398;2022-12-07T06:53:20;101774.59;;;2.61;99.39
71976;BME280;60680;52.182;5.398;2022-12-07T06:55:47;101769.47;;;2.56;99.12
71976;BME280;60680;52.182;5.398;2022-12-07T06:58:13;101769.47;;;2.53;99.05
71976;BME280;60680;52.182;5.398;2022-12-07T07:00:40;101776.31;;;2.53;99.54
71976;BME280;60680;52.182;5.398;2022-12-07T07:03:07;101777.19;;;2.52;99.80
71976;BME280;60680;52.182;5.398;2022-12-07T07:05:33;101776.34;;;2.51;99.23
71976;BME280;60680;52.182;5.398;2022-12-07T07:08:00;101776.31;;;2.53;99.76
71976;BME280;60680;52.182;5.398;2022-12-07T07:10:46;101778.03;;;2.54;99.77
71976;BME280;60680;52.182;5.398;2022-12-07T07:13:13;101774.59;;;2.55;99.35
71976;BME280;60680;52.182;5.398;2022-12-07T07:15:39;101783.19;;;2.55;99.92
71976;BME280;60680;52.182;5.398;2022-12-07T07:18:06;101779.72;;;2.55;100.00
71976;BME280;60680;52.182;5.398;2022-12-07T07:20:33;101784.88;;;2.56;99.51
71976;BME280;60680;52.182;5.398;2022-12-07T07:23:00;101775.47;;;2.54;99.68
71976;BME280;60680;52.182;5.398;2022-12-07T07:25:27;101783.16;;;2.51;99.77
71976;BME280;60680;52.182;5.398;2022-12-07T07:27:54;101772.03;;;2.49;99.98
71976;BME280;60680;52.182;5.398;2022-12-07T07:30:20;101774.63;;;2.45;99.85
71976;BME280;60680;52.182;5.398;2022-12-07T07:32:47;101775.50;;;2.44;99.48
71976;BME280;60680;52.182;5.398;2022-12-07T07:35:14;101772.91;;;2.43;99.83
71976;BME280;60680;52.182;5.398;2022-12-07T07:37:41;101776.34;;;2.40;99.36
71976;BME280;60680;52.182;5.398;2022-12-07T07:40:08;101784.91;;;2.38;99.47
71976;BME280;60680;52.182;5.398;2022-12-07T07:42:35;101778.91;;;2.36;99.41
71976;BME280;60680;52.182;5.398;2022-12-07T07:45:02;101773.78;;;2.34;99.73
71976;BME280;60680;52.182;5.398;2022-12-07T07:47:29;101785.75;;;2.34;99.41
71976;BME280;60680;52.182;5.398;2022-12-07T07:49:56;101784.91;;;2.33;99.67
71976;BME280;60680;52.182;5.398;2022-12-07T07:52:23;101788.31;;;2.34;99.88
71976;BME280;60680;52.182;5.398;2022-12-07T07:54:50;101784.06;;;2.34;99.48
71976;BME280;60680;52.182;5.398;2022-12-07T07:57:17;101783.19;;;2.35;100.00
71976;BME280;60680;52.182;5.398;2022-12-07T07:59:44;101786.63;;;2.36;100.00
71976;BME280;60680;52.182;5.398;2022-12-07T08:02:15;101782.34;;;2.36;99.90
71976;BME280;60680;52.182;5.398;2022-12-07T08:04:43;101790.06;;;2.36;99.86
71976;BME280;60680;52.182;5.398;2022-12-07T08:07:10;101788.34;;;2.37;99.67
71976;BME280;60680;52.182;5.398;2022-12-07T08:09:37;101794.34;;;2.39;99.70
71976;BME280;60680;52.182;5.398;2022-12-07T08:12:04;101799.44;;;2.48;99.67
71976;BME280;60680;52.182;5.398;2022-12-07T08:14:31;101798.56;;;2.57;100.00
71976;BME280;60680;52.182;5.398;2022-12-07T08:16:58;101801.16;;;2.66;99.82
71976;BME280;60680;52.182;5.398;2022-12-07T08:19:24;101797.69;;;2.73;100.00
71976;BME280;60680;52.182;5.398;2022-12-07T08:21:51;101802.81;;;2.78;99.14
71976;BME280;60680;52.182;5.398;2022-12-07T08:24:18;101808.81;;;2.83;99.29
71976;BME280;60680;52.182;5.398;2022-12-07T08:26:44;101800.25;;;2.87;99.23
71976;BME280;60680;52.182;5.398;2022-12-07T08:29:11;101802.78;;;2.90;99.25
71976;BME280;60680;52.182;5.398;2022-12-07T08:31:38;101798.50;;;2.92;98.87
71976;BME280;60680;52.182;5.398;2022-12-07T08:34:04;101798.50;;;2.94;98.92
71976;BME280;60680;52.182;5.398;2022-12-07T08:36:31;101796.75;;;2.97;98.95
71976;BME280;60680;52.182;5.398;2022-12-07T08:38:57;101801.03;;;3.03;98.78
71976;BME280;60680;52.182;5.398;2022-12-07T08:41:44;101798.47;;;3.06;98.60
71976;BME280;60680;52.182;5.398;2022-12-07T08:44:11;101794.13;;;3.08;98.13
71976;BME280;60680;52.182;5.398;2022-12-07T08:46:50;101810.41;;;3.13;98.21
71976;BME280;60680;52.182;5.398;2022-12-07T08:49:24;101796.69;;;3.17;98.01
71976;BME280;60680;52.182;5.398;2022-12-07T08:51:54;101794.97;;;3.18;98.45
71976;BME280;60680;52.182;5.398;2022-12-07T08:54:21;101790.66;;;3.18;97.74
71976;BME280;60680;52.182;5.398;2022-12-07T08:56:49;101783.84;;;3.19;98.44
71976;BME280;60680;52.182;5.398;2022-12-07T08:59:24;101790.66;;;3.20;97.94
71976;BME280;60680;52.182;5.398;2022-12-07T09:01:51;101800.13;;;3.19;97.93
71976;BME280;60680;52.182;5.398;2022-12-07T09:04:18;101789.81;;;3.19;98.14
71976;BME280;60680;52.182;5.398;2022-12-07T09:06:45;101791.53;;;3.20;97.71
71976;BME280;60680;52.182;5.398;2022-12-07T09:09:13;101784.66;;;3.22;98.11
71976;BME280;60680;52.182;5.398;2022-12-07T09:11:40;101787.22;;;3.25;98.37
71976;BME280;60680;52.182;5.398;2022-12-07T09:14:07;101790.63;;;3.32;98.06
71976;BME280;60680;52.182;5.398;2022-12-07T09:16:34;101791.41;;;3.43;98.51
71976;BME280;60680;52.182;5.398;2022-12-07T09:19:01;101789.63;;;3.58;98.82
71976;BME280;60680;52.182;5.398;2022-12-07T09:21:28;101798.13;;;3.72;98.17
71976;BME280;60680;52.182;5.398;2022-12-07T09:23:54;101797.16;;;3.82;97.73
71976;BME280;60680;52.182;5.398;2022-12-07T09:26:21;101799.72;;;3.87;97.86
71976;BME280;60680;52.182;5.398;2022-12-07T09:28:48;101800.56;;;3.84;96.98
71976;BME280;60680;52.182;5.398;2022-12-07T09:31:14;101800.66;;;3.78;97.51
71976;BME280;60680;52.182;5.398;2022-12-07T09:34:09;101803.25;;;3.72;97.21
71976;BME280;60680;52.182;5.398;2022-12-07T09:36:36;101800.66;;;3.75;97.73
71976;BME280;60680;52.182;5.398;2022-12-07T09:39:02;101803.19;;;3.83;97.46
71976;BME280;60680;52.182;5.398;2022-12-07T09:41:31;101804.84;;;3.90;97.23
71976;BME280;60680;52.182;5.398;2022-12-07T09:44:04;101788.50;;;3.94;97.11
71976;BME280;60680;52.182;5.398;2022-12-07T09:46:36;101793.56;;;4.05;97.97
71976;BME280;60680;52.182;5.398;2022-12-07T09:49:17;101793.47;;;4.16;97.11
71976;BME280;60680;52.182;5.398;2022-12-07T09:51:45;101790.91;;;4.14;96.64
71976;BME280;60680;52.182;5.398;2022-12-07T09:54:14;101790.06;;;4.14;96.50
71976;BME280;60680;52.182;5.398;2022-12-07T09:56:41;101787.50;;;4.12;96.96
71976;BME280;60680;52.182;5.398;2022-12-07T09:59:13;101789.22;;;4.12;96.66
71976;BME280;60680;52.182;5.398;2022-12-07T10:01:43;101789.25;;;4.05;96.89
71976;BME280;60680;52.182;5.398;2022-12-07T10:06:37;101775.63;;;3.96;96.96
71976;BME280;60680;52.182;5.398;2022-12-07T10:09:09;101774.75;;;3.95;97.06
71976;BME280;60680;52.182;5.398;2022-12-07T10:12:09;101772.06;;;4.09;97.50
71976;BME280;60680;52.182;5.398;2022-12-07T10:14:39;101767.56;;;4.34;96.95
71976;BME280;60680;52.182;5.398;2022-12-07T10:17:37;101768.19;;;4.55;96.49
71976;BME280;60680;52.182;5.398;2022-12-07T10:22:59;101766.50;;;4.54;96.31
71976;BME280;60680;52.182;5.398;2022-12-07T10:25:34;101767.47;;;4.45;96.17
71976;BME280;60680;52.182;5.398;2022-12-07T10:28:03;101766.69;;;4.35;95.91
71976;BME280;60680;52.182;5.398;2022-12-07T10:30:55;101763.34;;;4.25;95.80
71976;BME280;60680;52.182;5.398;2022-12-07T10:33:52;101758.25;;;4.18;96.43
71976;BME280;60680;52.182;5.398;2022-12-07T10:36:26;101758.25;;;4.19;96.63
71976;BME280;60680;52.182;5.398;2022-12-07T10:39:01;101749.59;;;4.28;96.54
71976;BME280;60680;52.182;5.398;2022-12-07T10:41:27;101751.22;;;4.38;96.37
71976;BME280;60680;52.182;5.398;2022-12-07T10:43:56;101753.63;;;4.52;96.87
71976;BME280;60680;52.182;5.398;2022-12-07T10:49:25;101750.88;;;4.67;96.02
71976;BME280;60680;52.182;5.398;2022-12-07T10:52:21;101738.81;;;4.71;96.26
71976;BME280;60680;52.182;5.398;2022-12-07T10:57:52;101735.31;;;4.78;95.35
71976;BME280;60680;52.182;5.398;2022-12-07T11:00:24;101730.88;;;4.88;95.34
71976;BME280;60680;52.182;5.398;2022-12-07T11:03:17;101731.63;;;4.98;95.11
71976;BME280;60680;52.182;5.398;2022-12-07T11:08:45;101733.00;;;5.23;94.69
71976;BME280;60680;52.182;5.398;2022-12-07T11:17:09;101719.41;;;5.10;93.64
71976;BME280;60680;52.182;5.398;2022-12-07T11:22:48;101723.16;;;4.86;94.10
71976;BME280;60680;52.182;5.398;2022-12-07T11:35:57;101702.56;;;4.83;95.09
71976;BME280;60680;52.182;5.398;2022-12-07T11:38:37;101701.66;;;4.87;95.27
71976;BME280;60680;52.182;5.398;2022-12-07T11:41:08;101702.50;;;4.91;95.76
71976;BME280;60680;52.182;5.398;2022-12-07T11:44:00;101692.06;;;4.97;95.11
71976;BME280;60680;52.182;5.398;2022-12-07T11:46:49;101691.16;;;5.01;94.86
71976;BME280;60680;52.182;5.398;2022-12-07T11:49:20;101694.53;;;5.06;95.04
71976;BME280;60680;52.182;5.398;2022-12-07T11:51:51;101690.97;;;5.14;94.56
71976;BME280;60680;52.182;5.398;2022-12-07T11:54:32;101690.06;;;5.19;95.01
71976;BME280;60680;52.182;5.398;2022-12-07T11:57:12;101683.16;;;5.21;94.70
71976;BME280;60680;52.182;5.398;2022-12-07T11:59:56;101683.97;;;5.23;94.74
71976;BME280;60680;52.182;5.398;2022-12-07T12:02:36;101684.81;;;5.24;94.47
71976;BME280;60680;52.182;5.398;2022-12-07T12:05:13;101678.00;;;5.20;93.65
71976;BME280;60680;52.182;5.398;2022-12-07T12:07:41;101669.41;;;5.19;94.09
71976;BME280;60680;52.182;5.398;2022-12-07T12:13:38;101663.31;;;5.25;93.97
71976;BME280;60680;52.182;5.398;2022-12-07T12:16:50;101656.38;;;5.28;93.65
71976;BME280;60680;52.182;5.398;2022-12-07T12:22:04;101663.94;;;5.39;92.62
71976;BME280;60680;52.182;5.398;2022-12-07T12:24:33;101659.56;;;5.44;92.16
71976;BME280;60680;52.182;5.398;2022-12-07T12:27:10;101656.06;;;5.48;91.36
71976;BME280;60680;52.182;5.398;2022-12-07T12:29:41;101659.47;;;5.50;91.80
71976;BME280;60680;52.182;5.398;2022-12-07T12:32:21;101649.84;;;5.60;90.75
71976;BME280;60680;52.182;5.398;2022-12-07T12:42:56;101642.34;;;5.98;89.92
71976;BME280;60680;52.182;5.398;2022-12-07T12:47:57;101646.66;;;5.97;88.78
71976;BME280;60680;52.182;5.398;2022-12-07T12:50:28;101642.50;;;5.87;88.93
71976;BME280;60680;52.182;5.398;2022-12-07T12:52:59;101641.81;;;5.77;89.45
71976;BME280;60680;52.182;5.398;2022-12-07T13:01:30;101632.94;;;5.41;91.70
71976;BME280;60680;52.182;5.398;2022-12-07T13:03:35;101629.53;;;5.39;91.43
71976;BME280;60680;52.182;5.398;2022-12-07T13:06:19;101632.13;;;5.39;91.09
71976;BME280;60680;52.182;5.398;2022-12-07T13:08:46;101632.28;;;5.28;90.91
71976;BME280;60680;52.182;5.398;2022-12-07T13:11:28;101625.56;;;5.18;90.72
71976;BME280;60680;52.182;5.398;2022-12-07T13:17:01;101619.81;;;5.02;91.84
71976;BME280;60680;52.182;5.398;2022-12-07T13:19:55;101607.78;;;4.99;91.69
71976;BME280;60680;52.182;5.398;2022-12-07T13:22:38;101607.84;;;4.96;91.57
71976;BME280;60680;52.182;5.398;2022-12-07T13:27:41;101596.69;;;4.96;91.68
71976;BME280;60680;52.182;5.398;2022-12-07T13:30:15;101605.34;;;4.90;91.27
71976;BME280;60680;52.182;5.398;2022-12-07T13:32:42;101602.81;;;4.87;91.35
71976;BME280;60680;52.182;5.398;2022-12-07T13:35:31;101593.34;;;4.87;92.03
71976;BME280;60680;52.182;5.398;2022-12-07T13:37:57;101591.69;;;4.83;91.53
71976;BME280;60680;52.182;5.398;2022-12-07T13:40:24;101592.53;;;4.84;92.32
71976;BME280;60680;52.182;5.398;2022-12-07T13:43:17;101589.88;;;4.90;92.49
71976;BME280;60680;52.182;5.398;2022-12-07T13:45:43;101583.88;;;4.89;91.83
71976;BME280;60680;52.182;5.398;2022-12-07T13:50:56;101575.31;;;4.87;91.78
71976;BME280;60680;52.182;5.398;2022-12-07T13:53:23;101578.72;;;4.88;92.55
71976;BME280;60680;52.182;5.398;2022-12-07T13:55:50;101583.03;;;4.89;92.75
71976;BME280;60680;52.182;5.398;2022-12-07T13:58:21;101577.88;;;4.89;92.40
71976;BME280;60680;52.182;5.398;2022-12-07T14:00:48;101573.53;;;4.91;92.46
71976;BME280;60680;52.182;5.398;2022-12-07T14:05:43;101564.81;;;4.98;92.67
71976;BME280;60680;52.182;5.398;2022-12-07T14:15:56;101569.72;;;5.15;92.38
71976;BME280;60680;52.182;5.398;2022-12-07T14:18:44;101562.78;;;5.19;92.80
71976;BME280;60680;52.182;5.398;2022-12-07T14:21:14;101561.06;;;5.18;92.53
71976;BME280;60680;52.182;5.398;2022-12-07T14:23:41;101546.50;;;5.15;92.25
71976;BME280;60680;52.182;5.398;2022-12-07T14:26:13;101550.81;;;5.15;91.94
71976;BME280;60680;52.182;5.398;2022-12-07T14:28:42;101551.69;;;5.12;91.68
71976;BME280;60680;52.182;5.398;2022-12-07T14:31:12;101544.84;;;5.11;92.15
71976;BME280;60680;52.182;5.398;2022-12-07T14:33:49;101549.19;;;5.09;92.58
71976;BME280;60680;52.182;5.398;2022-12-07T14:36:16;101544.03;;;5.07;92.12
71976;BME280;60680;52.182;5.398;2022-12-07T14:38:42;101542.34;;;5.06;92.34
71976;BME280;60680;52.182;5.398;2022-12-07T14:41:17;101537.22;;;5.03;92.21
71976;BME280;60680;52.182;5.398;2022-12-07T14:44:13;101534.69;;;5.00;92.32
71976;BME280;60680;52.182;5.398;2022-12-07T14:47:00;101530.44;;;4.98;92.77
71976;BME280;60680;52.182;5.398;2022-12-07T14:49:47;101529.56;;;4.97;92.98
71976;BME280;60680;52.182;5.398;2022-12-07T14:52:28;101532.16;;;4.97;93.03
71976;BME280;60680;52.182;5.398;2022-12-07T14:55:23;101541.69;;;4.95;92.86
71976;BME280;60680;52.182;5.398;2022-12-07T14:57:51;101538.28;;;4.92;93.04